Time;durP1;ratioP1;P1;durP2;ratioP2;P2;SDS_P1;SDS_P2;PMS_P1;PMS_P2;Temp;Humidity;BMP_temperature;BMP_pressure;BME280_temperature;BME280_humidity;BME280_pressure;Samples;Min_cycle;Max_cycle;Signal;HPM_P1;HPM_P2
2022/01/31 00:01:16;;;;;;;;;;;;;;;;;;7390065;19;2284;-47
2022/01/31 00:03:43;;;;;;;;;;;;;;;;;;7390420;19;2362;-44
2022/01/31 00:06:10;;;;;;;;;;;;;;;;;;7389891;19;2291;-44
2022/01/31 00:08:38;;;;;;;;;;;;;;;;;;7389852;19;2035;-42
2022/01/31 00:11:05;;;;;;;;;;;;;;;;;;7391069;19;2259;-42
2022/01/31 00:13:37;;;;;;;;;;;;;;;;;;7388761;19;2394;-42
2022/01/31 00:16:07;;;;;;;;;;;;;;;;;;7389274;19;1865;-45
2022/01/31 00:18:35;;;;;;;;;;;;;;;;;;7390262;19;2258;-42
2022/01/31 00:21:02;;;;;;;;;;;;;;;;;;7389843;19;1998;-42
2022/01/31 00:23:29;;;;;;;;;;;;;;;;;;7388391;19;2105;-46
2022/01/31 00:25:57;;;;;;;;;;;;;;;;;;7389291;19;2210;-42
2022/01/31 00:28:24;;;;;;;;;;;;;;;;;;7389526;19;2291;-44
2022/01/31 00:30:51;;;;;;;;;;;;;;;;;;7388419;19;2135;-48
2022/01/31 00:33:18;;;;;;;;;;;;;;;;;;7388043;19;2089;-45
2022/01/31 00:35:45;;;;;;;;;;;;;;;;;;7389521;19;2340;-45
2022/01/31 00:38:13;;;;;;;;;;;;;;;;;;7388620;19;1913;-44
2022/01/31 00:40:42;;;;;;;;;;;;;;;;;;7397475;19;2296;-44
2022/01/31 00:43:13;;;;;;;;;;;;;;;;;;7395677;19;2181;-43
2022/01/31 00:45:46;;;;;;;;;;;;;;;;;;7397105;19;2205;-43
2022/01/31 00:48:19;;;;;;;;;;;;;;;;;;7397336;19;2272;-47
2022/01/31 00:50:47;;;;;;;;;;;;;;;;;;7394779;19;2336;-42
2022/01/31 00:53:14;;;;;;;;;;;;;;;;;;7394047;19;2325;-47
2022/01/31 00:55:43;;;;;;;;;;;;;;;;;;7394845;19;2454;-43
2022/01/31 00:58:10;;;;;;;;;;;;;;;;;;7394622;19;2181;-43
2022/01/31 01:00:38;;;;;;;;;;;;;;;;;;7396334;19;2176;-47
2022/01/31 01:03:06;;;;;;;;;;;;;;;;;;7396139;19;1897;-45
2022/01/31 01:05:33;;;;;;;;;;;;;;;;;;7393669;19;2298;-43
2022/01/31 01:08:03;;;;;;;;;;;;;;;;;;7396223;19;2157;-48
2022/01/31 01:10:31;;;;;;;;;;;;;;;;;;7396987;19;2311;-42
2022/01/31 01:12:59;;;;;;;;;;;;;;;;;;7395047;19;2012;-46
2022/01/31 01:15:26;;;;;;;;;;;;;;;;;;7394284;19;2343;-43
2022/01/31 01:17:53;;;;;;;;;;;;;;;;;;7394233;19;2322;-46
2022/01/31 01:20:23;;;;;;;;;;;;;;;;;;7394631;19;2198;-43
2022/01/31 01:22:50;;;;;;;;;;;;;;;;;;7396016;19;2299;-44
2022/01/31 01:25:18;;;;;;;;;;;;;;;;;;7396042;19;2312;-44
2022/01/31 01:27:49;;;;;;;;;;;;;;;;;;7394446;19;2421;-43
2022/01/31 01:30:17;;;;;;;;;;;;;;;;;;7395062;19;1954;-43
2022/01/31 01:33:01;;;;;;;;;;;;;;;;;;7392506;19;2290;-42
2022/01/31 01:35:32;;;;;;;;;;;;;;;;;;7393695;19;2221;-43
2022/01/31 01:38:05;;;;;;;;;;;;;;;;;;7393632;19;2006;-42
2022/01/31 01:40:35;;;;;;;;;;;;;;;;;;7394308;19;2257;-43
2022/01/31 01:43:03;;;;;;;;;;;;;;;;;;7392726;19;2348;-43
2022/01/31 01:45:31;;;;;;;;;;;;;;;;;;7395547;19;2410;-42
2022/01/31 01:47:58;;;;;;;;;;;;;;;;;;7393724;19;2328;-43
2022/01/31 01:50:26;;;;;;;;;;;;;;;;;;7392436;19;2248;-43
2022/01/31 01:52:59;;;;;;;;;;;;;;;;;;7393224;19;2242;-42
2022/01/31 01:55:27;;;;;;;;;;;;;;;;;;7392792;19;1979;-44
2022/01/31 01:57:56;;;;;;;;;;;;;;;;;;7393250;19;2263;-45
2022/01/31 02:00:26;;;;;;;;;;;;;;;;;;7393675;19;2316;-42
2022/01/31 02:02:54;;;;;;;;;;;;;;;;;;7394582;19;2131;-43
2022/01/31 02:05:23;;;;;;;;;;;;;;;;;;7395712;19;2321;-44
2022/01/31 02:07:51;;;;;;;;;;;;;;;;;;7393080;19;2668;-44
2022/01/31 02:10:21;;;;;;;;;;;;;;;;;;7393784;19;2203;-43
2022/01/31 02:13:09;;;;;;;;;;;;;;;;;;7391354;19;2216;-43
2022/01/31 02:15:55;;;;;;;;;;;;;;;;;;7394545;19;2028;-43
2022/01/31 02:18:48;;;;;;;;;;;;;;;;;;7394156;19;2201;-43
2022/01/31 02:21:43;;;;;;;;;;;;;;;;;;7391694;19;1434;-43
2022/01/31 02:24:30;;;;;;;;;;;;;;;;;;7392092;19;2301;-48
2022/01/31 02:27:28;;;;;;;;;;;;;;;;;;7393748;19;2432;-42
2022/01/31 02:29:56;;;;;;;;;;;;;;;;;;7392005;19;2277;-43
2022/01/31 02:32:26;;;;;;;;;;;;;;;;;;7392975;19;2362;-50
2022/01/31 02:35:00;;;;;;;;;;;;;;;;;;7393456;19;2326;-44
2022/01/31 02:37:28;;;;;;;;;;;;;;;;;;7395569;19;2356;-43
2022/01/31 02:40:07;;;;;;;;;;;;;;;;;;7391585;19;2181;-46
2022/01/31 02:42:34;;;;;;;;;;;;;;;;;;7390839;19;1741;-44
2022/01/31 02:45:04;;;;;;;;;;;;;;;;;;7391268;19;2228;-43
2022/01/31 02:47:38;;;;;;;;;;;;;;;;;;7391860;19;2253;-43
2022/01/31 02:50:08;;;;;;;;;;;;;;;;;;7391039;19;2288;-43
2022/01/31 02:52:37;;;;;;;;;;;;;;;;;;7390770;19;1854;-46
2022/01/31 02:55:04;;;;;;;;;;;;;;;;;;7392097;19;1874;-43
2022/01/31 02:57:32;;;;;;;;;;;;;;;;;;7391022;19;2327;-45
2022/01/31 03:00:00;;;;;;;;;;;;;;;;;;7390731;19;2244;-44
2022/01/31 03:02:38;;;;;;;;;;;;;;;;;;7391875;19;2311;-44
2022/01/31 03:05:05;;;;;;;;;;;;;;;;;;7392593;19;2277;-45
2022/01/31 03:07:34;;;;;;;;;;;;;;;;;;7392740;19;1982;-43
2022/01/31 03:10:01;;;;;;;;;;;;;;;;;;7390825;19;2284;-42
2022/01/31 03:12:30;;;;;;;;;;;;;;;;;;7393976;19;2262;-46
2022/01/31 03:15:00;;;;;;;;;;;;;;;;;;7390350;19;2270;-44
2022/01/31 03:17:49;;;;;;;;;;;;;;;;;;7392773;19;1913;-46
2022/01/31 03:20:18;;;;;;;;;;;;;;;;;;7389666;19;2723;-44
2022/01/31 03:22:46;;;;;;;;;;;;;;;;;;7389719;19;2201;-43
2022/01/31 03:25:14;;;;;;;;;;;;;;;;;;7391239;19;1926;-46
2022/01/31 03:27:42;;;;;;;;;;;;;;;;;;7391182;19;1926;-45
2022/01/31 03:30:11;;;;;;;;;;;;;;;;;;7389913;19;2118;-42
2022/01/31 03:32:38;;;;;;;;;;;;;;;;;;7389494;19;1918;-43
2022/01/31 03:35:07;;;;;;;;;;;;;;;;;;7391268;19;2279;-44
2022/01/31 03:37:35;;;;;;;;;;;;;;;;;;7391655;19;2321;-47
2022/01/31 03:40:03;;;;;;;;;;;;;;;;;;7391187;19;2133;-42
2022/01/31 03:42:31;;;;;;;;;;;;;;;;;;7389519;19;2287;-44
2022/01/31 03:44:58;;;;;;;;;;;;;;;;;;7389290;19;1517;-43
2022/01/31 03:47:26;;;;;;;;;;;;;;;;;;7389202;19;2550;-46
2022/01/31 03:49:53;;;;;;;;;;;;;;;;;;7389955;19;2267;-43
2022/01/31 03:52:21;;;;;;;;;;;;;;;;;;7390161;19;2244;-45
2022/01/31 03:54:50;;;;;;;;;;;;;;;;;;7390900;19;1553;-43
2022/01/31 03:57:18;;;;;;;;;;;;;;;;;;7389304;19;2169;-43
2022/01/31 03:59:48;;;;;;;;;;;;;;;;;;7390755;19;1638;-44
2022/01/31 04:02:16;;;;;;;;;;;;;;;;;;7389024;19;2273;-46
2022/01/31 04:04:43;;;;;;;;;;;;;;;;;;7390672;19;2079;-43
2022/01/31 04:07:11;;;;;;;;;;;;;;;;;;7391038;19;2298;-43
2022/01/31 04:09:38;;;;;;;;;;;;;;;;;;7390043;19;2026;-42
2022/01/31 04:12:06;;;;;;;;;;;;;;;;;;7392998;19;2251;-42
2022/01/31 04:14:33;;;;;;;;;;;;;;;;;;7389404;19;2220;-43
2022/01/31 04:17:00;;;;;;;;;;;;;;;;;;7389798;19;2325;-49
2022/01/31 04:19:27;;;;;;;;;;;;;;;;;;7389574;19;2274;-42
2022/01/31 04:21:55;;;;;;;;;;;;;;;;;;7390209;19;2012;-44
2022/01/31 04:24:29;;;;;;;;;;;;;;;;;;7389674;19;2192;-46
2022/01/31 04:26:59;;;;;;;;;;;;;;;;;;7391907;19;2088;-45
2022/01/31 04:29:30;;;;;;;;;;;;;;;;;;7389499;19;1501;-42
2022/01/31 04:31:57;;;;;;;;;;;;;;;;;;7389727;19;2205;-46
2022/01/31 04:34:24;;;;;;;;;;;;;;;;;;7389249;19;2360;-41
2022/01/31 04:36:52;;;;;;;;;;;;;;;;;;7390005;19;2186;-43
2022/01/31 04:39:19;;;;;;;;;;;;;;;;;;7389826;19;1871;-44
2022/01/31 04:41:48;;;;;;;;;;;;;;;;;;7389069;19;1583;-42
2022/01/31 04:44:16;;;;;;;;;;;;;;;;;;7387512;19;2005;-43
2022/01/31 04:46:45;;;;;;;;;;;;;;;;;;7389024;19;1481;-48
2022/01/31 04:49:12;;;;;;;;;;;;;;;;;;7389180;19;2090;-44
2022/01/31 04:51:39;;;;;;;;;;;;;;;;;;7388289;19;2385;-44
2022/01/31 04:54:07;;;;;;;;;;;;;;;;;;7387722;19;2420;-43
2022/01/31 04:56:36;;;;;;;;;;;;;;;;;;7388415;19;2354;-43
2022/01/31 04:59:03;;;;;;;;;;;;;;;;;;7388865;19;2270;-47
2022/01/31 05:01:31;;;;;;;;;;;;;;;;;;7388808;19;2413;-43
2022/01/31 05:03:58;;;;;;;;;;;;;;;;;;7389901;19;1952;-42
2022/01/31 05:06:31;;;;;;;;;;;;;;;;;;7388786;19;2437;-44
2022/01/31 05:08:59;;;;;;;;;;;;;;;;;;7389387;19;2238;-42
2022/01/31 05:11:26;;;;;;;;;;;;;;;;;;7390562;19;2273;-42
2022/01/31 05:13:53;;;;;;;;;;;;;;;;;;7388083;19;2384;-43
2022/01/31 05:16:20;;;;;;;;;;;;;;;;;;7389023;19;2204;-44
2022/01/31 05:18:47;;;;;;;;;;;;;;;;;;7387932;19;2325;-42
2022/01/31 05:21:15;;;;;;;;;;;;;;;;;;7388985;19;1938;-42
2022/01/31 05:23:42;;;;;;;;;;;;;;;;;;7388053;19;2339;-44
2022/01/31 05:26:09;;;;;;;;;;;;;;;;;;7396240;19;1919;-42
2022/01/31 05:28:36;;;;;;;;;;;;;;;;;;7396207;19;2066;-45
2022/01/31 05:31:03;;;;;;;;;;;;;;;;;;7395537;19;2217;-42
2022/01/31 05:33:30;;;;;;;;;;;;;;;;;;7394548;19;2281;-47
2022/01/31 05:35:58;;;;;;;;;;;;;;;;;;7396239;19;2017;-43
2022/01/31 05:38:26;;;;;;;;;;;;;;;;;;7395255;19;1845;-43
2022/01/31 05:40:53;;;;;;;;;;;;;;;;;;7396125;19;1430;-43
2022/01/31 05:43:20;;;;;;;;;;;;;;;;;;7394401;19;2269;-42
2022/01/31 05:45:47;;;;;;;;;;;;;;;;;;7395535;19;2306;-42
2022/01/31 05:48:18;;;;;;;;;;;;;;;;;;7395151;19;1905;-43
2022/01/31 05:50:45;;;;;;;;;;;;;;;;;;7394510;19;2172;-43
2022/01/31 05:53:13;;;;;;;;;;;;;;;;;;7394243;19;2419;-52
2022/01/31 05:55:40;;;;;;;;;;;;;;;;;;7394618;19;1979;-43
2022/01/31 05:58:08;;;;;;;;;;;;;;;;;;7394594;19;2201;-42
2022/01/31 06:00:37;;;;;;;;;;;;;;;;;;7394900;19;1958;-44
2022/01/31 06:03:05;;;;;;;;;;;;;;;;;;7392717;19;2231;-42
2022/01/31 06:05:32;;;;;;;;;;;;;;;;;;7394436;19;2189;-43
2022/01/31 06:07:59;;;;;;;;;;;;;;;;;;7394638;19;2293;-43
2022/01/31 06:10:26;;;;;;;;;;;;;;;;;;7394493;19;2346;-43
2022/01/31 06:12:55;;;;;;;;;;;;;;;;;;7394942;19;2376;-45
2022/01/31 06:15:23;;;;;;;;;;;;;;;;;;7391188;19;2289;-43
2022/01/31 06:17:50;;;;;;;;;;;;;;;;;;7393377;19;2276;-45
2022/01/31 06:20:17;;;;;;;;;;;;;;;;;;7393662;19;2501;-43
2022/01/31 06:22:45;;;;;;;;;;;;;;;;;;7394007;19;2335;-45
2022/01/31 06:25:13;;;;;;;;;;;;;;;;;;7393198;19;2127;-45
2022/01/31 06:27:42;;;;;;;;;;;;;;;;;;7393660;19;1917;-45
2022/01/31 06:30:09;;;;;;;;;;;;;;;;;;7391622;19;2297;-42
2022/01/31 06:32:37;;;;;;;;;;;;;;;;;;7391767;19;2342;-44
2022/01/31 06:35:05;;;;;;;;;;;;;;;;;;7390642;19;2067;-47
2022/01/31 06:37:33;;;;;;;;;;;;;;;;;;7391324;19;2313;-41
2022/01/31 06:40:00;;;;;;;;;;;;;;;;;;7393350;19;2206;-43
2022/01/31 06:42:27;;;;;;;;;;;;;;;;;;7392794;19;2246;-46
2022/01/31 06:44:54;;;;;;;;;;;;;;;;;;7393610;19;2313;-47
2022/01/31 06:47:23;;;;;;;;;;;;;;;;;;7393277;19;2102;-42
2022/01/31 06:49:50;;;;;;;;;;;;;;;;;;7393730;19;2385;-43
2022/01/31 06:52:17;;;;;;;;;;;;;;;;;;7392816;19;2198;-41
2022/01/31 06:54:49;;;;;;;;;;;;;;;;;;7390351;19;1968;-43
2022/01/31 06:57:22;;;;;;;;;;;;;;;;;;7393986;19;2136;-43
2022/01/31 06:59:50;;;;;;;;;;;;;;;;;;7391369;19;2884;-48
2022/01/31 07:02:17;;;;;;;;;;;;;;;;;;7392937;19;2316;-47
2022/01/31 07:04:44;;;;;;;;;;;;;;;;;;7392224;19;2291;-42
2022/01/31 07:07:11;;;;;;;;;;;;;;;;;;7392281;19;2199;-47
2022/01/31 07:09:39;;;;;;;;;;;;;;;;;;7393106;19;2330;-43
2022/01/31 07:12:10;;;;;;;;;;;;;;;;;;7395206;19;2235;-41
2022/01/31 07:14:37;;;;;;;;;;;;;;;;;;7391667;19;2321;-46
2022/01/31 07:17:05;;;;;;;;;;;;;;;;;;7392358;19;2308;-45
2022/01/31 07:19:36;;;;;;;;;;;;;;;;;;7392489;19;2253;-45
2022/01/31 07:22:06;;;;;;;;;;;;;;;;;;7391740;19;2246;-42
2022/01/31 07:27:05;;;;;;;;;;;;;;;;;;7391784;19;2296;-43
2022/01/31 07:29:32;;;;;;;;;;;;;;;;;;7391492;19;1969;-44
2022/01/31 07:32:00;;;;;;;;;;;;;;;;;;7391272;19;2169;-43
2022/01/31 07:34:28;;;;;;;;;;;;;;;;;;7390361;19;2378;-43
2022/01/31 07:36:58;;;;;;;;;;;;;;;;;;7391001;19;2133;-42
2022/01/31 07:39:25;;;;;;;;;;;;;;;;;;7391496;19;2087;-42
2022/01/31 07:41:53;;;;;;;;;;;;;;;;;;7391455;19;2357;-42
2022/01/31 07:44:20;;;;;;;;;;;;;;;;;;7389886;19;2163;-44
2022/01/31 07:46:49;;;;;;;;;;;;;;;;;;7390190;19;2271;-41
2022/01/31 07:49:16;;;;;;;;;;;;;;;;;;7391350;19;2261;-42
2022/01/31 07:51:43;;;;;;;;;;;;;;;;;;7390240;19;1985;-41
2022/01/31 07:54:11;;;;;;;;;;;;;;;;;;7389818;19;1939;-43
2022/01/31 07:56:38;;;;;;;;;;;;;;;;;;7391089;19;2375;-41
2022/01/31 07:59:05;;;;;;;;;;;;;;;;;;7390715;19;2420;-43
2022/01/31 08:01:33;;;;;;;;;;;;;;;;;;7391263;19;2168;-42
2022/01/31 08:04:00;;;;;;;;;;;;;;;;;;7389709;19;2263;-44
2022/01/31 08:06:27;;;;;;;;;;;;;;;;;;7389449;19;2309;-41
2022/01/31 08:08:54;;;;;;;;;;;;;;;;;;7390964;19;2185;-43
2022/01/31 08:11:31;;;;;;;;;;;;;;;;;;7392601;19;2379;-42
2022/01/31 08:14:01;;;;;;;;;;;;;;;;;;7389710;19;2285;-43
2022/01/31 08:16:29;;;;;;;;;;;;;;;;;;7390306;19;2433;-44
2022/01/31 08:18:56;;;;;;;;;;;;;;;;;;7390425;19;2362;-43
2022/01/31 08:21:26;;;;;;;;;;;;;;;;;;7390140;19;2264;-42
2022/01/31 08:23:53;;;;;;;;;;;;;;;;;;7389901;19;2253;-44
2022/01/31 08:26:21;;;;;;;;;;;;;;;;;;7390259;19;2135;-43
2022/01/31 08:28:58;;;;;;;;;;;;;;;;;;7389518;19;2162;-43
2022/01/31 08:31:33;;;;;;;;;;;;;;;;;;7390284;19;2142;-45
2022/01/31 08:34:06;;;;;;;;;;;;;;;;;;7388947;19;2363;-42
2022/01/31 08:36:34;;;;;;;;;;;;;;;;;;7389947;19;2277;-45
2022/01/31 08:39:08;;;;;;;;;;;;;;;;;;7388989;19;2474;-46
2022/01/31 08:41:37;;;;;;;;;;;;;;;;;;7389263;19;2387;-43
2022/01/31 08:44:04;;;;;;;;;;;;;;;;;;7387670;19;2478;-43
2022/01/31 08:46:33;;;;;;;;;;;;;;;;;;7388720;19;2274;-41
2022/01/31 08:49:00;;;;;;;;;;;;;;;;;;7389139;19;2246;-49
2022/01/31 08:51:27;;;;;;;;;;;;;;;;;;7388291;19;2200;-42
2022/01/31 08:53:54;;;;;;;;;;;;;;;;;;7389328;19;1929;-43
2022/01/31 08:56:22;;;;;;;;;;;;;;;;;;7388584;19;2056;-41
2022/01/31 08:58:49;;;;;;;;;;;;;;;;;;7389151;19;1976;-43
2022/01/31 09:01:18;;;;;;;;;;;;;;;;;;7396498;19;2302;-42
2022/01/31 09:06:21;;;;;;;;;;;;;;;;;;7396043;19;2217;-44
2022/01/31 09:08:49;;;;;;;;;;;;;;;;;;7395484;19;2247;-42
2022/01/31 09:11:16;;;;;;;;;;;;;;;;;;7398610;19;2148;-45
2022/01/31 09:13:44;;;;;;;;;;;;;;;;;;7395952;19;2264;-42
2022/01/31 09:16:11;;;;;;;;;;;;;;;;;;7393213;19;2115;-42
2022/01/31 09:18:39;;;;;;;;;;;;;;;;;;7396036;19;2235;-51
2022/01/31 09:21:06;;;;;;;;;;;;;;;;;;7396429;19;2351;-42
2022/01/31 09:23:33;;;;;;;;;;;;;;;;;;7395313;19;2333;-43
2022/01/31 09:26:01;;;;;;;;;;;;;;;;;;7395843;19;2281;-42
2022/01/31 09:28:28;;;;;;;;;;;;;;;;;;7395416;19;2259;-47
2022/01/31 09:30:56;;;;;;;;;;;;;;;;;;7396203;19;2257;-44
2022/01/31 09:33:25;;;;;;;;;;;;;;;;;;7396624;19;2504;-46
2022/01/31 09:35:53;;;;;;;;;;;;;;;;;;7393055;19;2308;-44
2022/01/31 09:38:23;;;;;;;;;;;;;;;;;;7395882;19;2304;-47
2022/01/31 09:40:54;;;;;;;;;;;;;;;;;;7396250;19;2263;-44
2022/01/31 09:48:44;;;;;;;;;;;;;;;;;;7392876;19;2108;-48
2022/01/31 09:51:12;;;;;;;;;;;;;;;;;;7395159;19;2219;-42
2022/01/31 09:53:40;;;;;;;;;;;;;;;;;;7395412;19;2149;-44
2022/01/31 09:56:10;;;;;;;;;;;;;;;;;;7391765;19;2212;-46
2022/01/31 09:58:38;;;;;;;;;;;;;;;;;;7394938;19;2161;-47
2022/01/31 10:01:16;;;;;;;;;;;;;;;;;;7394588;19;2264;-44
2022/01/31 10:03:45;;;;;;;;;;;;;;;;;;7394095;19;2313;-44
2022/01/31 10:06:20;;;;;;;;;;;;;;;;;;7393423;19;2313;-42
2022/01/31 10:08:48;;;;;;;;;;;;;;;;;;7393439;19;2215;-45
2022/01/31 10:11:28;;;;;;;;;;;;;;;;;;7395233;19;2048;-50
2022/01/31 10:16:53;;;;;;;;;;;;;;;;;;7394463;19;2081;-43
2022/01/31 10:19:40;;;;;;;;;;;;;;;;;;7393771;19;2300;-42
2022/01/31 10:22:09;;;;;;;;;;;;;;;;;;7392914;19;2071;-46
2022/01/31 10:24:37;;;;;;;;;;;;;;;;;;7394569;19;2297;-50
2022/01/31 10:27:08;;;;;;;;;;;;;;;;;;7393486;19;2044;-44
2022/01/31 10:29:37;;;;;;;;;;;;;;;;;;7396973;19;2273;-44
2022/01/31 10:32:07;;;;;;;;;;;;;;;;;;7393451;19;2326;-43
2022/01/31 10:34:36;;;;;;;;;;;;;;;;;;7393691;19;1845;-47
2022/01/31 10:37:04;;;;;;;;;;;;;;;;;;7393482;19;2010;-43
2022/01/31 10:51:18;;;;;;;;;;;;;;;;;;7391991;19;2219;-39
2022/01/31 10:54:12;;;;;;;;;;;;;;;;;;7393077;19;2207;-47
2022/01/31 10:56:41;;;;;;;;;;;;;;;;;;7392685;19;2195;-48
2022/01/31 10:59:10;;;;;;;;;;;;;;;;;;7392802;19;1516;-43
2022/01/31 11:01:38;;;;;;;;;;;;;;;;;;7391970;19;2645;-45
2022/01/31 11:04:35;;;;;;;;;;;;;;;;;;7393307;19;2341;-46
2022/01/31 11:07:06;;;;;;;;;;;;;;;;;;7392326;19;1946;-44
2022/01/31 11:09:33;;;;;;;;;;;;;;;;;;7391288;19;2297;-41
2022/01/31 11:12:00;;;;;;;;;;;;;;;;;;7395830;19;2491;-48
2022/01/31 11:14:28;;;;;;;;;;;;;;;;;;7392942;19;2362;-44
2022/01/31 11:16:55;;;;;;;;;;;;;;;;;;7391879;19;2241;-46
2022/01/31 11:19:30;;;;;;;;;;;;;;;;;;7392194;19;2123;-49
2022/01/31 11:22:04;;;;;;;;;;;;;;;;;;7390669;19;2170;-48
2022/01/31 11:24:43;;;;;;;;;;;;;;;;;;7392675;19;2268;-46
2022/01/31 11:27:12;;;;;;;;;;;;;;;;;;7391490;19;2376;-48
2022/01/31 11:29:43;;;;;;;;;;;;;;;;;;7393385;19;2146;-48
2022/01/31 11:32:11;;;;;;;;;;;;;;;;;;7391917;19;2260;-43
2022/01/31 11:34:39;;;;;;;;;;;;;;;;;;7390835;19;2356;-48
2022/01/31 11:37:10;;;;;;;;;;;;;;;;;;7391032;19;2243;-48
2022/01/31 11:39:38;;;;;;;;;;;;;;;;;;7391324;19;1308;-51
2022/01/31 11:42:06;;;;;;;;;;;;;;;;;;7391272;19;2294;-46
2022/01/31 11:44:38;;;;;;;;;;;;;;;;;;7389575;19;2270;-44
